Rio Tala, Argentina
Current Conditions -  °F | °C
As of 1:00 PM on Monday 26 Jan 2015 (Local Time) from SADF Reporting Station
Broken Clouds Broken Clouds  
Wind Chill: 32°   Ceiling: 20000
Heat Index: 35°   Visibility: 6mi
Dew Point: 21°   Wind: 8mph
Humidity: 52%   Direction: 340°NNW
Pressure: 29.8"   Gusts: NA
Location:  33.76°S, 59.65°W
Report Text: SADF 261600Z 34007KT 9999 SCT030 BKN200 32/21 Q1009
Loading
Personal Weather Stations






























Interactive Weather Map New forecast layout! Learn more

10-Day Weather Forecast

Advertisements
Track Severe Weather on mobile